createdAt,value
2019-04-29T00:02:36.279Z,97293.59
2019-04-29T00:05:08.941Z,97287.50
2019-04-29T00:07:40.565Z,97288.84
2019-04-29T00:10:15.871Z,97293.33
2019-04-29T00:12:47.286Z,97295.75
2019-04-29T00:15:36.831Z,97293.18
2019-04-29T00:18:13.818Z,97291.39
2019-04-29T00:20:48.625Z,97293.13
2019-04-29T00:23:19.991Z,97293.09
2019-04-29T00:25:51.864Z,97294.14
2019-04-29T00:28:23.362Z,97295.07
2019-04-29T00:30:54.832Z,97288.89
2019-04-29T00:33:26.372Z,97287.20
2019-04-29T00:35:57.613Z,97288.75
2019-04-29T00:38:51.022Z,97289.78
2019-04-29T00:41:44.471Z,97291.09
2019-04-29T00:44:17.936Z,97284.70
2019-04-29T00:46:49.545Z,97296.18
2019-04-29T00:49:20.984Z,97285.98
2019-04-29T00:51:52.337Z,97294.26
2019-04-29T00:54:32.658Z,97290.50
2019-04-29T00:57:04.085Z,97296.23
2019-04-29T00:59:35.362Z,97284.33
2019-04-29T01:02:08.797Z,97294.58
2019-04-29T01:04:40.224Z,97299.32
2019-04-29T01:07:11.735Z,97297.95
2019-04-29T01:09:43.312Z,97297.95
2019-04-29T01:12:14.931Z,97294.87
2019-04-29T01:14:46.293Z,97293.18
2019-04-29T01:17:17.803Z,97293.67
2019-04-29T01:19:49.238Z,97296.70
2019-04-29T01:22:21.143Z,97292.94
2019-04-29T01:24:52.965Z,97294.42
2019-04-29T01:27:29.076Z,97289.30
2019-04-29T01:30:00.466Z,97291.34
2019-04-29T01:32:31.831Z,97294.42
2019-04-29T01:35:03.141Z,97294.86
2019-04-29T01:37:39.651Z,97298.36
2019-04-29T01:40:33.273Z,97299.39
2019-04-29T01:43:04.676Z,97288.62
2019-04-29T01:45:36.607Z,97296.84
2019-04-29T01:48:08.380Z,97294.52
2019-04-29T01:50:39.818Z,97296.30
2019-04-29T01:53:11.095Z,97295.56
2019-04-29T01:55:42.553Z,97296.67
2019-04-29T01:58:15.177Z,97291.93
2019-04-29T02:00:46.583Z,97298.69
2019-04-29T02:03:17.784Z,97293.01
2019-04-29T02:05:49.333Z,97298.25
2019-04-29T02:08:20.809Z,97289.16
2019-04-29T02:10:52.342Z,97291.38
2019-04-29T02:13:23.607Z,97293.41
2019-04-29T02:15:54.890Z,97293.14
2019-04-29T02:18:26.513Z,97294.45
2019-04-29T02:20:57.850Z,97288.52
2019-04-29T02:23:40.601Z,97286.63
2019-04-29T02:26:11.889Z,97291.84
2019-04-29T02:28:43.483Z,97289.02
2019-04-29T02:31:33.082Z,97287.94
2019-04-29T02:34:04.471Z,97280.02
2019-04-29T02:36:35.978Z,97280.62
2019-04-29T02:39:33.037Z,97278.93
2019-04-29T02:42:26.917Z,97282.20
2019-04-29T02:45:02.873Z,97284.55
2019-04-29T02:47:35.283Z,97284.71
2019-04-29T02:50:07.380Z,97281.25
2019-04-29T02:52:39.070Z,97284.25
2019-04-29T02:55:12.428Z,97281.44
2019-04-29T02:58:02.818Z,97277.63
2019-04-29T03:00:59.400Z,97284.14
2019-04-29T03:03:48.069Z,97274.13
2019-04-29T03:06:19.604Z,97276.72
2019-04-29T03:08:51.057Z,97280.67
2019-04-29T03:11:23.567Z,97277.41
2019-04-29T03:13:54.893Z,97271.04
2019-04-29T03:16:26.298Z,97277.42
2019-04-29T03:19:01.884Z,97270.41
2019-04-29T03:21:41.545Z,97277.05
2019-04-29T03:24:12.821Z,97278.20
2019-04-29T03:26:44.277Z,97275.61
2019-04-29T03:29:25.014Z,97276.14
2019-04-29T03:31:57.939Z,97260.45
2019-04-29T03:34:29.424Z,97266.27
2019-04-29T03:37:00.885Z,97272.49
2019-04-29T03:39:32.463Z,97276.97
2019-04-29T03:42:07.193Z,97275.41
2019-04-29T03:44:36.888Z,97264.61
2019-04-29T03:47:08.119Z,97273.97
2019-04-29T03:49:40.788Z,97276.50
2019-04-29T03:52:12.474Z,97267.66
2019-04-29T03:54:43.996Z,97271.27
2019-04-29T03:57:16.828Z,97269.52
2019-04-29T03:59:48.154Z,97269.14
2019-04-29T04:02:50.372Z,97272.55
2019-04-29T04:05:30.358Z,97274.33
2019-04-29T04:08:09.968Z,97277.00
2019-04-29T04:10:41.138Z,97281.80
2019-04-29T04:13:12.413Z,97278.80
2019-04-29T04:15:43.779Z,97284.39
2019-04-29T04:18:28.941Z,97283.48
2019-04-29T04:21:00.339Z,97287.77
2019-04-29T04:23:31.874Z,97288.09
2019-04-29T04:26:03.163Z,97289.59
2019-04-29T04:28:34.829Z,97283.66
2019-04-29T04:31:07.223Z,97292.86
2019-04-29T04:33:38.809Z,97287.90
2019-04-29T04:36:09.983Z,97284.08
2019-04-29T04:38:41.227Z,97294.80
2019-04-29T04:41:12.482Z,97289.45
2019-04-29T04:43:43.924Z,97299.97
2019-04-29T04:46:15.166Z,97299.70
2019-04-29T04:48:46.410Z,97301.42
2019-04-29T04:51:18.409Z,97306.84
2019-04-29T04:53:49.776Z,97310.25
2019-04-29T04:56:21.031Z,97302.16
2019-04-29T04:58:52.909Z,97301.69
2019-04-29T05:01:24.086Z,97308.67
2019-04-29T05:03:55.565Z,97303.98
2019-04-29T05:06:26.912Z,97300.69
2019-04-29T05:08:58.395Z,97299.98
2019-04-29T05:11:29.712Z,97305.33
2019-04-29T05:14:00.904Z,97306.41
2019-04-29T05:16:32.172Z,97305.12
2019-04-29T05:19:03.446Z,97303.34
2019-04-29T05:21:34.758Z,97305.14
2019-04-29T05:24:06.386Z,97315.22
2019-04-29T05:26:38.431Z,97319.74
2019-04-29T05:29:09.978Z,97316.16
2019-04-29T05:31:41.303Z,97323.85
2019-04-29T05:34:13.393Z,97323.39
2019-04-29T05:37:06.854Z,97316.56
2019-04-29T05:39:40.464Z,97311.61
2019-04-29T05:42:16.093Z,97327.50
2019-04-29T05:45:06.520Z,97323.84
2019-04-29T05:47:40.586Z,97315.48
2019-04-29T05:50:33.720Z,97315.58
2019-04-29T05:53:23.894Z,97322.47
2019-04-29T05:55:55.335Z,97326.89
2019-04-29T05:58:26.727Z,97330.58
2019-04-29T06:01:02.368Z,97323.84
2019-04-29T06:03:37.847Z,97329.98
2019-04-29T06:06:07.104Z,97330.77
2019-04-29T06:08:39.015Z,97322.86
2019-04-29T06:11:11.053Z,97327.22
2019-04-29T06:13:42.291Z,97326.11
2019-04-29T06:16:20.612Z,97318.59
2019-04-29T06:18:49.677Z,97322.39
2019-04-29T06:21:21.259Z,97324.88
2019-04-29T06:23:54.543Z,97331.86
2019-04-29T06:26:25.964Z,97327.38
2019-04-29T06:28:57.206Z,97323.05
2019-04-29T06:31:29.082Z,97319.24
2019-04-29T06:34:00.707Z,97324.25
2019-04-29T06:36:33.317Z,97324.59
2019-04-29T06:39:07.495Z,97322.98
2019-04-29T06:41:40.505Z,97321.60
2019-04-29T06:44:16.644Z,97336.45
2019-04-29T06:46:45.185Z,97339.51
2019-04-29T06:49:16.358Z,97323.83
2019-04-29T06:51:47.937Z,97341.39
2019-04-29T06:54:19.098Z,97340.91
2019-04-29T06:56:50.566Z,97340.56
2019-04-29T06:59:21.910Z,97337.30
2019-04-29T07:01:53.534Z,97334.89
2019-04-29T07:04:25.037Z,97340.11
2019-04-29T07:06:57.660Z,97332.77
2019-04-29T07:09:29.220Z,97339.59
2019-04-29T07:12:01.576Z,97328.66
2019-04-29T07:14:38.141Z,97332.42
2019-04-29T07:17:07.693Z,97337.94
2019-04-29T07:19:39.038Z,97337.33
2019-04-29T07:22:10.384Z,97340.31
2019-04-29T07:24:41.640Z,97336.34
2019-04-29T07:27:12.923Z,97332.06
2019-04-29T07:29:44.177Z,97334.37
2019-04-29T07:32:15.366Z,97339.90
2019-04-29T07:34:46.841Z,97333.16
2019-04-29T07:37:18.099Z,97341.86
2019-04-29T07:39:49.434Z,97343.73
2019-04-29T07:42:25.005Z,97345.03
2019-04-29T07:45:23.702Z,97343.88
2019-04-29T07:47:56.534Z,97348.66
2019-04-29T07:50:28.607Z,97339.38
2019-04-29T07:52:59.928Z,97344.66
2019-04-29T07:55:32.579Z,97344.50
2019-04-29T07:58:04.006Z,97343.91
2019-04-29T08:00:36.661Z,97344.16
2019-04-29T08:03:09.600Z,97346.75
2019-04-29T08:05:41.988Z,97343.45
2019-04-29T08:08:16.638Z,97344.73
2019-04-29T08:10:56.195Z,97340.09
2019-04-29T08:13:24.901Z,97342.36
2019-04-29T08:15:56.367Z,97338.34
2019-04-29T08:18:27.710Z,97353.81
2019-04-29T08:20:59.034Z,97348.27
2019-04-29T08:23:32.578Z,97347.87
2019-04-29T08:26:04.514Z,97346.55
2019-04-29T08:28:35.829Z,97348.36
2019-04-29T08:31:07.283Z,97338.87
2019-04-29T08:33:38.577Z,97347.39
2019-04-29T08:36:10.270Z,97346.16
2019-04-29T08:38:41.947Z,97348.27
2019-04-29T08:41:13.287Z,97345.30
2019-04-29T08:44:16.038Z,97352.62
2019-04-29T08:46:51.383Z,97346.97
2019-04-29T08:49:17.662Z,97348.16
2019-04-29T08:51:49.333Z,97347.20
2019-04-29T08:54:21.395Z,97344.77
2019-04-29T08:57:02.889Z,97348.42
2019-04-29T08:59:25.898Z,97342.39
2019-04-29T09:01:57.276Z,97347.94
2019-04-29T09:04:33.354Z,97352.10
2019-04-29T09:07:12.421Z,97341.77
2019-04-29T09:09:35.211Z,97340.02
2019-04-29T09:12:06.740Z,97343.45
2019-04-29T09:14:39.125Z,97338.34
2019-04-29T09:17:20.108Z,97338.38
2019-04-29T09:19:44.607Z,97332.86
2019-04-29T09:22:18.121Z,97334.67
2019-04-29T09:25:07.223Z,97331.18
2019-04-29T09:27:44.592Z,97330.50
2019-04-29T09:30:15.938Z,97323.66
2019-04-29T09:32:47.784Z,97322.77
2019-04-29T09:35:20.110Z,97318.52
2019-04-29T09:37:53.802Z,97318.47
2019-04-29T09:40:26.155Z,97314.59
2019-04-29T09:43:15.305Z,97316.83
2019-04-29T09:45:53.855Z,97304.00
2019-04-29T09:48:25.006Z,97299.59
2019-04-29T09:50:56.203Z,97301.82
2019-04-29T09:53:27.869Z,97303.99
2019-04-29T09:55:59.462Z,97300.52
2019-04-29T09:58:31.044Z,97306.17
2019-04-29T10:01:28.880Z,97307.45
2019-04-29T10:04:13.260Z,97306.58
2019-04-29T10:06:45.836Z,97305.78
2019-04-29T10:09:17.233Z,97306.14
2019-04-29T10:11:48.566Z,97297.48
2019-04-29T10:14:19.973Z,97303.14
2019-04-29T10:17:15.329Z,97300.12
2019-04-29T10:20:07.870Z,97295.03
2019-04-29T10:22:38.476Z,97284.22
2019-04-29T10:25:10.086Z,97283.78
2019-04-29T10:27:41.610Z,97283.35
2019-04-29T10:30:13.919Z,97285.09
2019-04-29T10:32:45.485Z,97287.72
2019-04-29T10:35:17.620Z,97285.08
2019-04-29T10:37:49.043Z,97284.62
2019-04-29T10:40:35.724Z,97279.03
2019-04-29T10:43:27.134Z,97272.94
2019-04-29T10:46:36.252Z,97268.19
2019-04-29T10:49:14.210Z,97272.50
2019-04-29T10:51:45.786Z,97273.78
2019-04-29T10:54:17.420Z,97275.98
2019-04-29T10:56:49.776Z,97270.86
2019-04-29T10:59:34.992Z,97273.86
2019-04-29T11:02:40.327Z,97269.98
2019-04-29T11:05:59.892Z,97268.67
2019-04-29T11:08:38.137Z,97265.66
2019-04-29T11:11:22.749Z,97266.52
2019-04-29T11:13:50.169Z,97265.64
2019-04-29T11:16:22.940Z,97266.08
2019-04-29T11:18:55.182Z,97263.05
2019-04-29T11:21:29.451Z,97273.74
2019-04-29T11:24:10.138Z,97254.66
2019-04-29T11:26:55.742Z,97261.51
2019-04-29T11:29:28.813Z,97255.92
2019-04-29T11:32:01.840Z,97256.74
2019-04-29T11:34:48.616Z,97252.56
2019-04-29T11:37:19.960Z,97254.32
2019-04-29T11:39:51.678Z,97251.81
2019-04-29T11:42:23.493Z,97251.31
2019-04-29T11:44:57.172Z,97250.52
2019-04-29T11:47:27.856Z,97237.94
2019-04-29T11:50:26.672Z,97243.99
2019-04-29T11:52:59.776Z,97250.44
2019-04-29T11:55:31.085Z,97247.94
2019-04-29T11:58:08.347Z,97248.36
2019-04-29T12:00:58.793Z,97248.27
2019-04-29T12:03:37.478Z,97251.66
2019-04-29T12:06:10.667Z,97248.34
2019-04-29T12:08:42.536Z,97252.19
2019-04-29T12:11:15.079Z,97256.04
2019-04-29T12:14:12.133Z,97255.22
2019-04-29T12:16:49.811Z,97246.24
2019-04-29T12:19:26.837Z,97245.01
2019-04-29T12:21:58.899Z,97240.80
2019-04-29T12:24:30.312Z,97237.81
2019-04-29T12:27:01.677Z,97237.34
2019-04-29T12:29:33.096Z,97236.05
2019-04-29T12:32:26.616Z,97238.17
2019-04-29T12:35:08.662Z,97234.63
2019-04-29T12:37:53.259Z,97240.16
2019-04-29T12:40:45.549Z,97249.42
2019-04-29T12:43:54.140Z,97245.66
2019-04-29T12:46:27.599Z,97255.92
2019-04-29T12:48:59.521Z,97248.81
2019-04-29T12:51:32.554Z,97243.25
2019-04-29T12:54:03.912Z,97245.04
2019-04-29T12:56:37.359Z,97242.00
2019-04-29T12:59:08.691Z,97243.13
2019-04-29T13:02:02.331Z,97242.10
2019-04-29T13:04:51.834Z,97226.44
2019-04-29T13:07:42.996Z,97226.55
2019-04-29T13:10:20.023Z,97229.67
2019-04-29T13:12:51.566Z,97221.41
2019-04-29T13:15:48.420Z,97224.94
2019-04-29T13:18:32.883Z,97223.25
2019-04-29T13:21:10.230Z,97214.30
2019-04-29T13:23:55.013Z,97203.23
2019-04-29T13:26:10.846Z,97202.06
2019-04-29T13:28:59.002Z,97201.56
2019-04-29T13:31:20.020Z,97198.48
2019-04-29T13:33:52.846Z,97192.05
2019-04-29T13:36:26.047Z,97193.95
2019-04-29T13:38:56.962Z,97188.64
2019-04-29T13:41:28.801Z,97190.35
2019-04-29T13:44:05.266Z,97188.16
2019-04-29T13:46:53.964Z,97186.86
2019-04-29T13:49:33.510Z,97180.34
2019-04-29T13:52:05.201Z,97183.61
2019-04-29T13:54:37.230Z,97172.77
2019-04-29T13:57:15.672Z,97167.65
2019-04-29T13:59:50.615Z,97163.36
2019-04-29T14:02:32.314Z,97174.44
2019-04-29T14:05:03.393Z,97168.03
2019-04-29T14:07:34.726Z,97159.76
2019-04-29T14:10:10.227Z,97164.53
2019-04-29T14:12:48.815Z,97162.38
2019-04-29T14:15:14.873Z,97164.95
2019-04-29T14:17:46.506Z,97171.18
2019-04-29T14:20:18.234Z,97165.62
2019-04-29T14:22:49.488Z,97161.05
2019-04-29T14:25:20.760Z,97161.05
2019-04-29T14:27:52.186Z,97160.71
2019-04-29T14:30:38.032Z,97158.20
2019-04-29T14:33:01.915Z,97154.80
2019-04-29T14:35:39.264Z,97146.98
2019-04-29T14:38:10.449Z,97145.16
2019-04-29T14:40:42.783Z,97144.30
2019-04-29T14:43:28.706Z,97152.86
2019-04-29T14:46:16.295Z,97149.28
2019-04-29T14:49:11.496Z,97147.26
2019-04-29T14:51:42.851Z,97156.63
2019-04-29T14:54:14.245Z,97152.25
2019-04-29T14:56:45.576Z,97159.16
2019-04-29T14:59:17.371Z,97158.13
2019-04-29T15:01:54.273Z,97152.05
2019-04-29T15:04:28.447Z,97161.05
2019-04-29T15:06:59.931Z,97163.52
2019-04-29T15:09:31.336Z,97166.08
2019-04-29T15:12:21.858Z,97165.69
2019-04-29T15:15:05.854Z,97165.51
2019-04-29T15:17:47.821Z,97166.27
2019-04-29T15:20:30.018Z,97167.35
2019-04-29T15:23:02.250Z,97161.62
2019-04-29T15:25:33.468Z,97165.66
2019-04-29T15:28:04.993Z,97170.47
2019-04-29T15:30:37.133Z,97168.31
2019-04-29T15:33:09.442Z,97166.69
2019-04-29T15:35:40.696Z,97167.09
2019-04-29T15:38:12.026Z,97171.88
2019-04-29T15:40:43.466Z,97173.46
2019-04-29T15:43:17.880Z,97176.48
2019-04-29T15:45:47.893Z,97176.91
2019-04-29T15:48:19.146Z,97173.31
2019-04-29T15:50:50.506Z,97185.23
2019-04-29T15:53:22.027Z,97178.33
2019-04-29T15:56:06.205Z,97178.86
2019-04-29T15:58:27.757Z,97186.81
2019-04-29T16:01:13.027Z,97187.14
2019-04-29T16:03:37.084Z,97187.45
2019-04-29T16:09:04.578Z,97181.27
2019-04-29T16:14:39.175Z,97191.22
2019-04-29T16:17:10.500Z,97185.13
2019-04-29T16:19:41.667Z,97190.53
2019-04-29T16:22:19.820Z,97186.61
2019-04-29T16:24:46.072Z,97178.56
2019-04-29T16:27:17.672Z,97187.50
2019-04-29T16:29:51.583Z,97182.83
2019-04-29T16:32:31.469Z,97177.34
2019-04-29T16:35:03.048Z,97180.33
2019-04-29T16:37:34.799Z,97178.48
2019-04-29T16:40:07.268Z,97180.89
2019-04-29T16:42:45.752Z,97183.02
2019-04-29T16:45:17.548Z,97180.52
2019-04-29T16:47:49.320Z,97180.70
2019-04-29T16:50:20.649Z,97175.88
2019-04-29T16:52:52.202Z,97160.05
2019-04-29T16:55:23.747Z,97163.03
2019-04-29T16:57:59.656Z,97160.46
2019-04-29T17:00:32.023Z,97160.64
2019-04-29T17:03:03.469Z,97164.95
2019-04-29T17:05:35.967Z,97166.09
2019-04-29T17:08:09.263Z,97168.58
2019-04-29T17:11:03.851Z,97175.06
2019-04-29T17:13:35.106Z,97168.56
2019-04-29T17:16:08.709Z,97169.55
2019-04-29T17:18:40.033Z,97164.31
2019-04-29T17:21:11.804Z,97169.59
2019-04-29T17:23:43.315Z,97164.55
2019-04-29T17:26:14.578Z,97175.13
2019-04-29T17:29:37.912Z,97169.91
2019-04-29T17:32:21.365Z,97175.29
2019-04-29T17:34:59.608Z,97161.59
2019-04-29T17:35:13.991Z,97184.75
2019-04-29T17:35:15.559Z,97178.32
2019-04-29T17:37:26.592Z,97165.98
2019-04-29T17:39:58.201Z,97163.90
2019-04-29T17:42:31.200Z,97172.33
2019-04-29T17:45:10.577Z,97166.39
2019-04-29T17:47:52.443Z,97169.53
2019-04-29T17:50:38.482Z,97168.94
2019-04-29T17:53:17.553Z,97166.80
2019-04-29T17:55:58.190Z,97171.03
2019-04-29T17:58:37.084Z,97172.09
2019-04-29T18:01:26.278Z,97179.95
2019-04-29T18:04:11.781Z,97171.66
2019-04-29T18:06:49.890Z,97172.64
2019-04-29T18:09:47.488Z,97170.79
2019-04-29T18:12:22.180Z,97173.19
2019-04-29T18:14:55.102Z,97170.86
2019-04-29T18:17:31.431Z,97163.23
2019-04-29T18:20:32.870Z,97172.98
2019-04-29T18:23:11.114Z,97172.98
2019-04-29T18:25:56.929Z,97181.77
2019-04-29T18:28:29.287Z,97176.66
2019-04-29T18:31:00.633Z,97185.22
2019-04-29T18:33:31.927Z,97174.97
2019-04-29T18:36:06.378Z,97186.84
2019-04-29T18:38:36.676Z,97191.38
2019-04-29T18:41:08.588Z,97182.40
2019-04-29T18:43:39.976Z,97186.71
2019-04-29T18:46:12.757Z,97183.25
2019-04-29T18:48:45.711Z,97186.96
2019-04-29T18:51:20.892Z,97180.11
2019-04-29T18:53:50.293Z,97180.91
2019-04-29T18:56:21.529Z,97179.65
2019-04-29T18:58:52.817Z,97176.67
2019-04-29T19:01:28.996Z,97178.78
2019-04-29T19:04:07.377Z,97180.63
2019-04-29T19:06:36.202Z,97177.17
2019-04-29T19:09:17.476Z,97184.71
2019-04-29T19:11:42.996Z,97171.67
2019-04-29T19:14:15.118Z,97178.55
2019-04-29T19:16:46.541Z,97173.05
2019-04-29T19:19:18.862Z,97174.66
2019-04-29T19:21:50.219Z,97173.34
2019-04-29T19:24:21.743Z,97161.34
2019-04-29T19:26:55.683Z,97161.89
2019-04-29T19:29:26.288Z,97158.05
2019-04-29T19:31:57.698Z,97161.89
2019-04-29T19:34:39.981Z,97160.98
2019-04-29T19:37:02.737Z,97152.71
2019-04-29T19:39:34.976Z,97161.25
2019-04-29T19:42:06.665Z,97157.40
2019-04-29T19:44:38.036Z,97161.80
2019-04-29T19:47:10.850Z,97171.34
2019-04-29T19:49:44.711Z,97174.50
2019-04-29T19:52:18.783Z,97175.23
2019-04-29T19:54:49.124Z,97178.73
2019-04-29T19:57:20.566Z,97185.64
2019-04-29T19:59:54.292Z,97183.00
2019-04-29T20:02:26.149Z,97179.77
2019-04-29T20:05:08.401Z,97182.92
2019-04-29T20:07:42.325Z,97181.39
2019-04-29T20:10:14.982Z,97171.06
2019-04-29T20:12:53.304Z,97172.66
2019-04-29T20:15:20.486Z,97173.53
2019-04-29T20:18:09.885Z,97173.52
2019-04-29T20:20:51.162Z,97168.29
2019-04-29T20:23:26.353Z,97162.01
2019-04-29T20:26:05.777Z,97157.66
2019-04-29T20:28:29.292Z,97155.48
2019-04-29T20:31:15.500Z,97150.76
2019-04-29T20:33:33.914Z,97156.41
2019-04-29T20:36:06.163Z,97153.05
2019-04-29T20:38:39.075Z,97158.64
2019-04-29T20:41:12.943Z,97154.09
2019-04-29T20:43:45.903Z,97149.53
2019-04-29T20:46:18.074Z,97151.26
2019-04-29T20:48:50.510Z,97144.66
2019-04-29T20:51:27.404Z,97148.95
2019-04-29T20:54:09.094Z,97147.77
2019-04-29T20:56:41.588Z,97146.50
2019-04-29T20:59:15.330Z,97152.84
2019-04-29T21:01:50.968Z,97150.23
2019-04-29T21:04:32.012Z,97158.55
2019-04-29T21:07:00.532Z,97148.77
2019-04-29T21:09:30.167Z,97144.44
2019-04-29T21:12:25.462Z,97145.42
2019-04-29T21:14:59.616Z,97144.57
2019-04-29T21:17:31.957Z,97149.44
2019-04-29T21:20:03.321Z,97141.77
2019-04-29T21:22:35.676Z,97145.22
2019-04-29T21:25:07.964Z,97149.53
2019-04-29T21:27:39.289Z,97143.66
2019-04-29T21:30:11.293Z,97151.41
2019-04-29T21:32:42.456Z,97141.83
2019-04-29T21:35:23.105Z,97145.22
2019-04-29T21:38:17.808Z,97140.09
2019-04-29T21:40:56.032Z,97139.38
2019-04-29T21:43:28.845Z,97141.77
2019-04-29T21:46:00.503Z,97137.13
2019-04-29T21:48:33.776Z,97130.92
2019-04-29T21:51:06.868Z,97130.11
2019-04-29T21:53:40.265Z,97136.95
2019-04-29T21:56:11.096Z,97134.22
2019-04-29T21:58:42.397Z,97127.44
2019-04-29T22:01:15.315Z,97133.35
2019-04-29T22:03:48.818Z,97136.79
2019-04-29T22:06:20.535Z,97130.33
2019-04-29T22:08:54.236Z,97123.34
2019-04-29T22:11:25.722Z,97120.47
2019-04-29T22:13:57.394Z,97123.73
2019-04-29T22:16:28.739Z,97124.58
2019-04-29T22:19:00.127Z,97131.22
2019-04-29T22:21:31.777Z,97127.83
2019-04-29T22:24:03.036Z,97131.67
2019-04-29T22:26:35.018Z,97131.12
2019-04-29T22:29:06.791Z,97138.73
2019-04-29T22:31:38.613Z,97134.56
2019-04-29T22:34:15.120Z,97131.48
2019-04-29T22:36:43.019Z,97126.08
2019-04-29T22:39:15.851Z,97119.48
2019-04-29T22:42:18.213Z,97127.27
2019-04-29T22:44:52.572Z,97123.34
2019-04-29T22:47:23.942Z,97127.19
2019-04-29T22:49:58.697Z,97119.08
2019-04-29T22:52:29.860Z,97124.31
2019-04-29T22:55:02.548Z,97121.23
2019-04-29T22:57:34.106Z,97119.47
2019-04-29T23:00:06.979Z,97115.78
2019-04-29T23:02:39.775Z,97106.25
2019-04-29T23:05:11.485Z,97113.52
2019-04-29T23:07:42.797Z,97112.33
2019-04-29T23:10:19.712Z,97116.11
2019-04-29T23:12:49.255Z,97110.65
2019-04-29T23:15:23.509Z,97110.75
2019-04-29T23:17:54.045Z,97109.37
2019-04-29T23:20:47.233Z,97116.19
2019-04-29T23:23:27.298Z,97112.03
2019-04-29T23:25:59.959Z,97112.03
2019-04-29T23:28:29.859Z,97104.44
2019-04-29T23:31:01.428Z,97100.09
2019-04-29T23:33:35.981Z,97083.74
2019-04-29T23:36:09.598Z,97079.14
2019-04-29T23:38:42.706Z,97087.81
2019-04-29T23:41:15.306Z,97084.70
2019-04-29T23:43:46.805Z,97081.24
2019-04-29T23:46:18.049Z,97074.37
2019-04-29T23:48:49.306Z,97077.50
2019-04-29T23:51:20.533Z,97074.44
2019-04-29T23:53:51.705Z,97073.22
2019-04-29T23:56:24.636Z,97067.76
2019-04-29T23:59:01.538Z,97071.12
